Weather at Methodist Dallas Medical Center Heliport

Public forecast

Using degrees Fahrenheit for public forecast. Weather courtesy of forecast.io.

Closest aviation weather report (METAR) to Methodist Dallas Medical Center Heliport

Closest report is Dallas Executive Airport, 5.3 nm (9.7 km) SSW.

2024/07/22 09:53 (retrieved 19 minutes ago)

KRBD 220953Z AUTO 12005KT 10SM FEW070 23/22 A2997 RMK AO2 SLP139 T02330222

Closest aviation forecast (TAF) to Methodist Dallas Medical Center Heliport

Closest forecast is Dallas Love Field, 5.4 nm (10.0 km) NNW.

2024/07/22 09:06 Ammendment (retrieved 1 hour ago)

TAF AMD KDAL 220903Z 2209/2306 10005KT P6SM VCSH SCT060 BKN250 FM221200 05004KT P6SM -SHRA VCTS SCT025CB BKN100 FM221600 02006KT P6SM BKN050 OVC150 FM230200 13005KT P6SM BKN250